sensor_id;sensor_type;location;lat;lon;timestamp;temperature;humidity
14771;DHT22;7477;45.222;5.688;2023-02-27T00:00:18;3.30;95.40
14771;DHT22;7477;45.222;5.688;2023-02-27T00:03:38;3.20;95.50
14771;DHT22;7477;45.222;5.688;2023-02-27T00:06:57;3.20;95.60
14771;DHT22;7477;45.222;5.688;2023-02-27T00:10:16;3.20;95.70
14771;DHT22;7477;45.222;5.688;2023-02-27T00:13:36;3.20;95.70
14771;DHT22;7477;45.222;5.688;2023-02-27T00:16:55;3.20;95.90
14771;DHT22;7477;45.222;5.688;2023-02-27T00:20:16;3.20;96.00
14771;DHT22;7477;45.222;5.688;2023-02-27T00:23:36;3.20;96.00
14771;DHT22;7477;45.222;5.688;2023-02-27T00:26:56;3.20;96.00
14771;DHT22;7477;45.222;5.688;2023-02-27T00:30:15;3.20;96.20
14771;DHT22;7477;45.222;5.688;2023-02-27T00:33:34;3.10;96.20
14771;DHT22;7477;45.222;5.688;2023-02-27T00:36:54;3.10;96.20
14771;DHT22;7477;45.222;5.688;2023-02-27T00:40:13;3.10;96.40
14771;DHT22;7477;45.222;5.688;2023-02-27T00:43:33;3.10;96.30
14771;DHT22;7477;45.222;5.688;2023-02-27T00:46:53;3.10;96.50
14771;DHT22;7477;45.222;5.688;2023-02-27T00:50:13;3.10;96.60
14771;DHT22;7477;45.222;5.688;2023-02-27T00:53:32;3.10;96.70
14771;DHT22;7477;45.222;5.688;2023-02-27T00:56:51;3.10;96.60
14771;DHT22;7477;45.222;5.688;2023-02-27T01:00:11;3.10;96.70
14771;DHT22;7477;45.222;5.688;2023-02-27T01:03:30;3.10;96.70
14771;DHT22;7477;45.222;5.688;2023-02-27T01:06:50;3.10;96.70
14771;DHT22;7477;45.222;5.688;2023-02-27T01:10:10;3.10;96.80
14771;DHT22;7477;45.222;5.688;2023-02-27T01:13:30;3.10;96.80
14771;DHT22;7477;45.222;5.688;2023-02-27T01:16:49;3.10;96.90
14771;DHT22;7477;45.222;5.688;2023-02-27T01:20:10;3.10;96.80
14771;DHT22;7477;45.222;5.688;2023-02-27T01:23:30;3.10;97.00
14771;DHT22;7477;45.222;5.688;2023-02-27T01:26:50;3.10;97.00
14771;DHT22;7477;45.222;5.688;2023-02-27T01:30:11;3.10;96.90
14771;DHT22;7477;45.222;5.688;2023-02-27T01:33:32;3.10;97.00
14771;DHT22;7477;45.222;5.688;2023-02-27T01:36:52;3.10;97.10
14771;DHT22;7477;45.222;5.688;2023-02-27T01:40:12;3.10;97.00
14771;DHT22;7477;45.222;5.688;2023-02-27T01:43:32;3.10;96.90
14771;DHT22;7477;45.222;5.688;2023-02-27T01:46:51;3.10;96.90
14771;DHT22;7477;45.222;5.688;2023-02-27T01:50:11;3.10;97.10
14771;DHT22;7477;45.222;5.688;2023-02-27T01:53:33;3.10;97.00
14771;DHT22;7477;45.222;5.688;2023-02-27T01:56:54;3.10;97.10
14771;DHT22;7477;45.222;5.688;2023-02-27T02:00:14;3.00;97.00
14771;DHT22;7477;45.222;5.688;2023-02-27T02:07:20;3.00;97.20
14771;DHT22;7477;45.222;5.688;2023-02-27T02:10:40;3.00;97.10
14771;DHT22;7477;45.222;5.688;2023-02-27T02:14:01;2.90;97.20
14771;DHT22;7477;45.222;5.688;2023-02-27T02:39:52;3.00;97.50
14771;DHT22;7477;45.222;5.688;2023-02-27T02:43:28;3.00;97.70
14771;DHT22;7477;45.222;5.688;2023-02-27T02:47:01;3.00;97.60
14771;DHT22;7477;45.222;5.688;2023-02-27T03:01:35;2.90;97.80
14771;DHT22;7477;45.222;5.688;2023-02-27T03:05:04;2.80;97.90
14771;DHT22;7477;45.222;5.688;2023-02-27T03:08:28;2.80;98.00
14771;DHT22;7477;45.222;5.688;2023-02-27T03:11:51;2.80;98.20
14771;DHT22;7477;45.222;5.688;2023-02-27T03:15:18;2.80;98.30
14771;DHT22;7477;45.222;5.688;2023-02-27T03:18:45;2.70;98.20
14771;DHT22;7477;45.222;5.688;2023-02-27T03:22:14;2.80;98.30
14771;DHT22;7477;45.222;5.688;2023-02-27T03:25:36;2.80;98.40
14771;DHT22;7477;45.222;5.688;2023-02-27T03:29:07;2.80;98.40
14771;DHT22;7477;45.222;5.688;2023-02-27T03:35:58;2.80;98.50
14771;DHT22;7477;45.222;5.688;2023-02-27T03:40:00;2.80;98.70
14771;DHT22;7477;45.222;5.688;2023-02-27T03:47:00;2.70;98.60
14771;DHT22;7477;45.222;5.688;2023-02-27T03:50:20;2.70;98.70
14771;DHT22;7477;45.222;5.688;2023-02-27T03:53:51;2.70;98.80
14771;DHT22;7477;45.222;5.688;2023-02-27T03:57:13;2.60;98.70
14771;DHT22;7477;45.222;5.688;2023-02-27T04:00:33;2.70;98.90
14771;DHT22;7477;45.222;5.688;2023-02-27T04:03:57;2.70;98.90
14771;DHT22;7477;45.222;5.688;2023-02-27T04:07:31;2.60;98.80
14771;DHT22;7477;45.222;5.688;2023-02-27T04:11:03;2.50;98.90
14771;DHT22;7477;45.222;5.688;2023-02-27T04:14:55;2.50;98.90
14771;DHT22;7477;45.222;5.688;2023-02-27T04:29:31;2.50;99.30
14771;DHT22;7477;45.222;5.688;2023-02-27T04:33:08;2.50;99.40
14771;DHT22;7477;45.222;5.688;2023-02-27T04:39:55;2.50;99.40
14771;DHT22;7477;45.222;5.688;2023-02-27T04:43:15;2.60;99.70
14771;DHT22;7477;45.222;5.688;2023-02-27T04:46:37;2.40;99.50
14771;DHT22;7477;45.222;5.688;2023-02-27T04:50:02;2.40;99.60
14771;DHT22;7477;45.222;5.688;2023-02-27T04:57:10;2.40;99.80
14771;DHT22;7477;45.222;5.688;2023-02-27T05:00:32;2.40;99.90
14771;DHT22;7477;45.222;5.688;2023-02-27T05:03:53;2.40;99.90
14771;DHT22;7477;45.222;5.688;2023-02-27T05:07:17;2.40;99.90
14771;DHT22;7477;45.222;5.688;2023-02-27T05:10:50;2.40;99.90
14771;DHT22;7477;45.222;5.688;2023-02-27T05:14:23;2.40;99.90
14771;DHT22;7477;45.222;5.688;2023-02-27T05:18:02;2.40;99.90
14771;DHT22;7477;45.222;5.688;2023-02-27T05:28:19;2.40;99.90
14771;DHT22;7477;45.222;5.688;2023-02-27T05:31:50;2.50;99.90
14771;DHT22;7477;45.222;5.688;2023-02-27T05:39:12;2.50;98.80
14771;DHT22;7477;45.222;5.688;2023-02-27T05:42:37;2.60;98.20
14771;DHT22;7477;45.222;5.688;2023-02-27T05:46:05;2.60;98.00
14771;DHT22;7477;45.222;5.688;2023-02-27T05:49:37;2.70;97.40
14771;DHT22;7477;45.222;5.688;2023-02-27T05:53:02;2.70;97.00
14771;DHT22;7477;45.222;5.688;2023-02-27T05:56:24;2.70;96.80
14771;DHT22;7477;45.222;5.688;2023-02-27T06:00:19;2.80;96.80
14771;DHT22;7477;45.222;5.688;2023-02-27T06:03:40;2.80;96.70
14771;DHT22;7477;45.222;5.688;2023-02-27T06:07:00;2.80;96.40
14771;DHT22;7477;45.222;5.688;2023-02-27T06:10:20;2.80;96.20
14771;DHT22;7477;45.222;5.688;2023-02-27T06:13:39;2.80;96.10
14771;DHT22;7477;45.222;5.688;2023-02-27T06:16:59;2.80;96.00
14771;DHT22;7477;45.222;5.688;2023-02-27T06:20:18;2.80;96.00
14771;DHT22;7477;45.222;5.688;2023-02-27T06:23:38;2.80;96.00
14771;DHT22;7477;45.222;5.688;2023-02-27T06:26:58;2.80;96.00
14771;DHT22;7477;45.222;5.688;2023-02-27T06:30:17;2.80;95.90
14771;DHT22;7477;45.222;5.688;2023-02-27T06:33:37;2.80;95.80
14771;DHT22;7477;45.222;5.688;2023-02-27T06:36:56;2.80;95.60
14771;DHT22;7477;45.222;5.688;2023-02-27T06:40:15;2.80;95.60
14771;DHT22;7477;45.222;5.688;2023-02-27T06:43:35;2.90;95.60
14771;DHT22;7477;45.222;5.688;2023-02-27T06:46:54;2.80;95.50
14771;DHT22;7477;45.222;5.688;2023-02-27T06:50:14;2.80;95.40
14771;DHT22;7477;45.222;5.688;2023-02-27T06:53:33;2.80;95.30
14771;DHT22;7477;45.222;5.688;2023-02-27T06:56:52;2.80;95.30
14771;DHT22;7477;45.222;5.688;2023-02-27T07:00:12;2.80;95.20
14771;DHT22;7477;45.222;5.688;2023-02-27T07:03:32;2.80;95.20
14771;DHT22;7477;45.222;5.688;2023-02-27T07:06:52;2.90;95.40
14771;DHT22;7477;45.222;5.688;2023-02-27T07:10:12;2.90;95.40
14771;DHT22;7477;45.222;5.688;2023-02-27T07:13:32;2.90;95.40
14771;DHT22;7477;45.222;5.688;2023-02-27T07:16:51;2.80;95.30
14771;DHT22;7477;45.222;5.688;2023-02-27T07:20:14;2.80;95.30
14771;DHT22;7477;45.222;5.688;2023-02-27T07:23:33;2.90;95.20
14771;DHT22;7477;45.222;5.688;2023-02-27T07:26:53;2.90;95.20
14771;DHT22;7477;45.222;5.688;2023-02-27T07:30:13;2.90;95.30
14771;DHT22;7477;45.222;5.688;2023-02-27T07:33:32;3.00;95.10
14771;DHT22;7477;45.222;5.688;2023-02-27T07:36:52;3.00;95.30
14771;DHT22;7477;45.222;5.688;2023-02-27T07:40:11;3.10;95.20
14771;DHT22;7477;45.222;5.688;2023-02-27T07:43:31;3.10;95.10
14771;DHT22;7477;45.222;5.688;2023-02-27T07:46:50;3.20;94.80
14771;DHT22;7477;45.222;5.688;2023-02-27T07:50:10;3.20;94.90
14771;DHT22;7477;45.222;5.688;2023-02-27T07:53:32;3.30;94.90
14771;DHT22;7477;45.222;5.688;2023-02-27T07:56:51;3.20;94.50
14771;DHT22;7477;45.222;5.688;2023-02-27T08:00:11;3.20;94.50
14771;DHT22;7477;45.222;5.688;2023-02-27T08:03:30;3.20;94.40
14771;DHT22;7477;45.222;5.688;2023-02-27T08:06:49;3.20;94.30
14771;DHT22;7477;45.222;5.688;2023-02-27T08:10:09;3.30;94.30
14771;DHT22;7477;45.222;5.688;2023-02-27T08:13:28;3.30;94.30
14771;DHT22;7477;45.222;5.688;2023-02-27T08:16:49;3.30;94.20
14771;DHT22;7477;45.222;5.688;2023-02-27T08:20:09;3.40;94.40
14771;DHT22;7477;45.222;5.688;2023-02-27T08:23:30;3.40;94.10
14771;DHT22;7477;45.222;5.688;2023-02-27T08:26:50;3.40;94.20
14771;DHT22;7477;45.222;5.688;2023-02-27T08:30:10;3.40;94.20
14771;DHT22;7477;45.222;5.688;2023-02-27T08:33:30;3.40;94.00
14771;DHT22;7477;45.222;5.688;2023-02-27T08:36:49;3.50;94.20
14771;DHT22;7477;45.222;5.688;2023-02-27T08:40:08;3.40;94.00
14771;DHT22;7477;45.222;5.688;2023-02-27T08:43:29;3.50;94.20
14771;DHT22;7477;45.222;5.688;2023-02-27T08:46:48;3.50;94.20
14771;DHT22;7477;45.222;5.688;2023-02-27T08:50:08;3.60;94.10
14771;DHT22;7477;45.222;5.688;2023-02-27T08:53:27;3.60;94.20
14771;DHT22;7477;45.222;5.688;2023-02-27T08:56:48;3.60;94.00
14771;DHT22;7477;45.222;5.688;2023-02-27T09:00:08;3.60;94.00
14771;DHT22;7477;45.222;5.688;2023-02-27T09:03:28;3.60;93.90
14771;DHT22;7477;45.222;5.688;2023-02-27T09:06:48;3.70;93.90
14771;DHT22;7477;45.222;5.688;2023-02-27T09:10:07;3.70;93.90
14771;DHT22;7477;45.222;5.688;2023-02-27T09:13:28;3.80;93.70
14771;DHT22;7477;45.222;5.688;2023-02-27T09:16:47;3.80;94.00
14771;DHT22;7477;45.222;5.688;2023-02-27T09:20:06;3.80;93.80
14771;DHT22;7477;45.222;5.688;2023-02-27T09:23:27;3.80;93.40
14771;DHT22;7477;45.222;5.688;2023-02-27T09:26:47;3.90;93.50
14771;DHT22;7477;45.222;5.688;2023-02-27T09:30:07;3.80;93.40
14771;DHT22;7477;45.222;5.688;2023-02-27T09:33:27;3.90;93.50
14771;DHT22;7477;45.222;5.688;2023-02-27T09:36:46;4.00;93.30
14771;DHT22;7477;45.222;5.688;2023-02-27T09:40:06;4.00;93.50
14771;DHT22;7477;45.222;5.688;2023-02-27T09:43:37;4.10;93.10
14771;DHT22;7477;45.222;5.688;2023-02-27T09:46:58;4.10;93.00
14771;DHT22;7477;45.222;5.688;2023-02-27T09:53:58;4.20;93.00
14771;DHT22;7477;45.222;5.688;2023-02-27T09:58:12;4.20;92.70
14771;DHT22;7477;45.222;5.688;2023-02-27T10:01:12;4.30;93.00
14771;DHT22;7477;45.222;5.688;2023-02-27T10:04:52;4.30;92.80
14771;DHT22;7477;45.222;5.688;2023-02-27T10:08:27;4.40;92.70
14771;DHT22;7477;45.222;5.688;2023-02-27T10:12:00;4.40;92.60
14771;DHT22;7477;45.222;5.688;2023-02-27T10:15:38;4.50;92.70
14771;DHT22;7477;45.222;5.688;2023-02-27T10:19:02;4.50;92.20
14771;DHT22;7477;45.222;5.688;2023-02-27T10:22:43;4.50;92.40
14771;DHT22;7477;45.222;5.688;2023-02-27T10:26:04;4.60;92.40
14771;DHT22;7477;45.222;5.688;2023-02-27T10:36:33;4.70;92.00
14771;DHT22;7477;45.222;5.688;2023-02-27T10:39:56;4.70;92.40
14771;DHT22;7477;45.222;5.688;2023-02-27T10:43:18;4.90;92.90
14771;DHT22;7477;45.222;5.688;2023-02-27T10:46:39;4.80;92.00
14771;DHT22;7477;45.222;5.688;2023-02-27T10:49:58;4.90;92.10
14771;DHT22;7477;45.222;5.688;2023-02-27T10:53:24;4.90;92.20
14771;DHT22;7477;45.222;5.688;2023-02-27T11:01:00;5.00;91.60
14771;DHT22;7477;45.222;5.688;2023-02-27T11:04:30;5.20;91.90
14771;DHT22;7477;45.222;5.688;2023-02-27T11:07:50;5.20;92.10
14771;DHT22;7477;45.222;5.688;2023-02-27T11:11:10;5.30;91.70
14771;DHT22;7477;45.222;5.688;2023-02-27T11:14:32;5.30;91.70
14771;DHT22;7477;45.222;5.688;2023-02-27T11:17:51;5.20;91.30
14771;DHT22;7477;45.222;5.688;2023-02-27T11:24:34;5.20;91.50
14771;DHT22;7477;45.222;5.688;2023-02-27T11:28:11;5.20;91.30
14771;DHT22;7477;45.222;5.688;2023-02-27T11:31:33;5.40;92.00
14771;DHT22;7477;45.222;5.688;2023-02-27T11:34:53;5.50;92.20
14771;DHT22;7477;45.222;5.688;2023-02-27T11:38:21;5.50;91.40
14771;DHT22;7477;45.222;5.688;2023-02-27T11:41:42;5.60;91.80
14771;DHT22;7477;45.222;5.688;2023-02-27T11:45:28;5.60;91.40
14771;DHT22;7477;45.222;5.688;2023-02-27T11:49:12;5.70;91.70
14771;DHT22;7477;45.222;5.688;2023-02-27T11:55:57;5.70;91.10
14771;DHT22;7477;45.222;5.688;2023-02-27T11:59:45;5.70;90.80
14771;DHT22;7477;45.222;5.688;2023-02-27T12:03:29;5.60;90.80
14771;DHT22;7477;45.222;5.688;2023-02-27T12:11:36;5.70;91.30
14771;DHT22;7477;45.222;5.688;2023-02-27T12:14:45;5.70;91.20
14771;DHT22;7477;45.222;5.688;2023-02-27T12:21:40;5.80;91.00
14771;DHT22;7477;45.222;5.688;2023-02-27T12:36:11;6.00;90.90
14771;DHT22;7477;45.222;5.688;2023-02-27T12:39:31;6.00;91.30
14771;DHT22;7477;45.222;5.688;2023-02-27T12:46:49;6.10;91.20
14771;DHT22;7477;45.222;5.688;2023-02-27T12:50:16;6.20;90.60
14771;DHT22;7477;45.222;5.688;2023-02-27T13:04:47;6.60;91.30
14771;DHT22;7477;45.222;5.688;2023-02-27T13:27:15;6.60;90.90
14771;DHT22;7477;45.222;5.688;2023-02-27T13:30:37;6.70;90.30
14771;DHT22;7477;45.222;5.688;2023-02-27T13:34:16;6.70;89.50
14771;DHT22;7477;45.222;5.688;2023-02-27T13:37:53;6.70;90.10
14771;DHT22;7477;45.222;5.688;2023-02-27T13:44:40;6.90;90.10
14771;DHT22;7477;45.222;5.688;2023-02-27T13:47:59;7.00;90.10
14771;DHT22;7477;45.222;5.688;2023-02-27T13:54:53;7.00;89.40
14771;DHT22;7477;45.222;5.688;2023-02-27T13:58:16;7.10;90.20
14771;DHT22;7477;45.222;5.688;2023-02-27T14:01:36;7.20;89.20
14771;DHT22;7477;45.222;5.688;2023-02-27T14:04:57;7.30;89.30
14771;DHT22;7477;45.222;5.688;2023-02-27T14:08:25;7.50;90.10
14771;DHT22;7477;45.222;5.688;2023-02-27T14:12:01;7.30;88.70
14771;DHT22;7477;45.222;5.688;2023-02-27T14:18:56;7.40;88.90
14771;DHT22;7477;45.222;5.688;2023-02-27T14:25:38;7.60;89.00
14771;DHT22;7477;45.222;5.688;2023-02-27T14:28:58;7.50;88.50
14771;DHT22;7477;45.222;5.688;2023-02-27T14:32:21;7.40;88.50
14771;DHT22;7477;45.222;5.688;2023-02-27T14:35:45;7.40;89.20
14771;DHT22;7477;45.222;5.688;2023-02-27T14:39:05;7.50;88.90
14771;DHT22;7477;45.222;5.688;2023-02-27T14:42:45;7.60;87.70
14771;DHT22;7477;45.222;5.688;2023-02-27T14:46:28;7.40;87.90
14771;DHT22;7477;45.222;5.688;2023-02-27T14:49:47;7.60;88.30
14771;DHT22;7477;45.222;5.688;2023-02-27T14:53:23;7.60;87.00
14771;DHT22;7477;45.222;5.688;2023-02-27T14:56:57;7.60;86.90
14771;DHT22;7477;45.222;5.688;2023-02-27T15:03:56;7.50;87.20
14771;DHT22;7477;45.222;5.688;2023-02-27T15:07:20;7.40;87.70
14771;DHT22;7477;45.222;5.688;2023-02-27T15:10:43;7.50;88.20
14771;DHT22;7477;45.222;5.688;2023-02-27T15:14:04;7.60;86.50
14771;DHT22;7477;45.222;5.688;2023-02-27T15:17:27;7.50;86.30
14771;DHT22;7477;45.222;5.688;2023-02-27T15:20:56;7.40;87.20
14771;DHT22;7477;45.222;5.688;2023-02-27T15:24:28;7.50;86.70
14771;DHT22;7477;45.222;5.688;2023-02-27T15:27:47;7.80;87.10
14771;DHT22;7477;45.222;5.688;2023-02-27T15:31:11;7.70;85.70
14771;DHT22;7477;45.222;5.688;2023-02-27T15:34:33;7.70;86.50
14771;DHT22;7477;45.222;5.688;2023-02-27T15:37:56;7.80;85.90
14771;DHT22;7477;45.222;5.688;2023-02-27T15:41:16;7.80;85.40
14771;DHT22;7477;45.222;5.688;2023-02-27T15:44:44;7.90;85.30
14771;DHT22;7477;45.222;5.688;2023-02-27T15:48:05;7.70;84.90
14771;DHT22;7477;45.222;5.688;2023-02-27T15:51:25;7.50;85.00
14771;DHT22;7477;45.222;5.688;2023-02-27T15:54:49;7.40;84.90
14771;DHT22;7477;45.222;5.688;2023-02-27T15:58:29;7.40;85.00
14771;DHT22;7477;45.222;5.688;2023-02-27T16:01:48;7.30;85.60
14771;DHT22;7477;45.222;5.688;2023-02-27T16:05:20;7.30;85.60
14771;DHT22;7477;45.222;5.688;2023-02-27T16:08:45;7.30;85.70
14771;DHT22;7477;45.222;5.688;2023-02-27T16:15:43;7.20;85.50
14771;DHT22;7477;45.222;5.688;2023-02-27T16:19:24;7.20;85.40
14771;DHT22;7477;45.222;5.688;2023-02-27T16:23:16;7.10;86.30
14771;DHT22;7477;45.222;5.688;2023-02-27T16:26:36;7.00;86.20
14771;DHT22;7477;45.222;5.688;2023-02-27T16:29:56;7.00;86.30
14771;DHT22;7477;45.222;5.688;2023-02-27T16:33:22;7.00;86.60
14771;DHT22;7477;45.222;5.688;2023-02-27T16:40:17;7.00;86.90
14771;DHT22;7477;45.222;5.688;2023-02-27T16:43:37;6.90;87.00
14771;DHT22;7477;45.222;5.688;2023-02-27T16:46:56;6.90;87.30
14771;DHT22;7477;45.222;5.688;2023-02-27T16:53:48;6.80;87.30
14771;DHT22;7477;45.222;5.688;2023-02-27T16:57:08;6.80;87.10
14771;DHT22;7477;45.222;5.688;2023-02-27T17:00:28;6.70;87.40
14771;DHT22;7477;45.222;5.688;2023-02-27T17:03:47;6.70;87.50
14771;DHT22;7477;45.222;5.688;2023-02-27T17:07:12;6.70;87.70
14771;DHT22;7477;45.222;5.688;2023-02-27T17:10:33;6.70;88.00
14771;DHT22;7477;45.222;5.688;2023-02-27T17:13:52;6.60;87.90
14771;DHT22;7477;45.222;5.688;2023-02-27T17:17:12;6.60;88.10
14771;DHT22;7477;45.222;5.688;2023-02-27T17:20:31;6.50;88.00
14771;DHT22;7477;45.222;5.688;2023-02-27T17:23:51;6.50;88.20
14771;DHT22;7477;45.222;5.688;2023-02-27T17:27:10;6.40;88.40
14771;DHT22;7477;45.222;5.688;2023-02-27T17:30:29;6.40;88.50
14771;DHT22;7477;45.222;5.688;2023-02-27T17:33:49;6.40;88.80
14771;DHT22;7477;45.222;5.688;2023-02-27T17:37:09;6.30;88.70
14771;DHT22;7477;45.222;5.688;2023-02-27T17:40:29;6.30;89.00
14771;DHT22;7477;45.222;5.688;2023-02-27T17:43:53;6.30;88.70
14771;DHT22;7477;45.222;5.688;2023-02-27T17:47:14;6.20;88.70
14771;DHT22;7477;45.222;5.688;2023-02-27T17:50:33;6.20;88.50
14771;DHT22;7477;45.222;5.688;2023-02-27T17:53:53;6.20;88.90
14771;DHT22;7477;45.222;5.688;2023-02-27T17:57:12;6.10;88.90
14771;DHT22;7477;45.222;5.688;2023-02-27T18:00:32;6.10;89.20
14771;DHT22;7477;45.222;5.688;2023-02-27T18:03:54;6.20;89.40
14771;DHT22;7477;45.222;5.688;2023-02-27T18:07:13;6.10;89.40
14771;DHT22;7477;45.222;5.688;2023-02-27T18:10:32;6.10;89.60
14771;DHT22;7477;45.222;5.688;2023-02-27T18:13:52;6.00;89.90
14771;DHT22;7477;45.222;5.688;2023-02-27T18:17:11;5.90;90.00
14771;DHT22;7477;45.222;5.688;2023-02-27T18:20:30;5.90;90.10
14771;DHT22;7477;45.222;5.688;2023-02-27T18:23:50;5.90;90.20
14771;DHT22;7477;45.222;5.688;2023-02-27T18:27:10;5.90;90.30
14771;DHT22;7477;45.222;5.688;2023-02-27T18:30:30;5.80;90.40
14771;DHT22;7477;45.222;5.688;2023-02-27T18:33:52;5.80;90.40
14771;DHT22;7477;45.222;5.688;2023-02-27T18:37:11;5.80;90.60
14771;DHT22;7477;45.222;5.688;2023-02-27T18:40:30;5.80;90.50
14771;DHT22;7477;45.222;5.688;2023-02-27T18:43:50;5.80;90.40
14771;DHT22;7477;45.222;5.688;2023-02-27T18:47:09;5.70;90.40
14771;DHT22;7477;45.222;5.688;2023-02-27T18:50:30;5.70;90.30
14771;DHT22;7477;45.222;5.688;2023-02-27T18:53:49;5.70;90.20
14771;DHT22;7477;45.222;5.688;2023-02-27T18:57:09;5.70;90.20
14771;DHT22;7477;45.222;5.688;2023-02-27T19:00:28;5.60;90.10
14771;DHT22;7477;45.222;5.688;2023-02-27T19:03:48;5.60;90.20
14771;DHT22;7477;45.222;5.688;2023-02-27T19:07:08;5.60;90.10
14771;DHT22;7477;45.222;5.688;2023-02-27T19:10:27;5.60;90.10
14771;DHT22;7477;45.222;5.688;2023-02-27T19:13:48;5.60;90.10
14771;DHT22;7477;45.222;5.688;2023-02-27T19:17:07;5.60;90.10
14771;DHT22;7477;45.222;5.688;2023-02-27T19:20:26;5.50;90.10
14771;DHT22;7477;45.222;5.688;2023-02-27T19:23:46;5.50;90.00
14771;DHT22;7477;45.222;5.688;2023-02-27T19:27:05;5.50;90.00
14771;DHT22;7477;45.222;5.688;2023-02-27T19:30:26;5.50;90.00
14771;DHT22;7477;45.222;5.688;2023-02-27T19:33:45;5.50;90.10
14771;DHT22;7477;45.222;5.688;2023-02-27T19:37:04;5.40;90.00
14771;DHT22;7477;45.222;5.688;2023-02-27T19:40:24;5.40;90.20
14771;DHT22;7477;45.222;5.688;2023-02-27T19:43:45;5.40;90.30
14771;DHT22;7477;45.222;5.688;2023-02-27T19:47:05;5.40;90.40
14771;DHT22;7477;45.222;5.688;2023-02-27T19:50:25;5.30;90.30
14771;DHT22;7477;45.222;5.688;2023-02-27T19:53:45;5.30;90.40
14771;DHT22;7477;45.222;5.688;2023-02-27T19:57:06;5.20;90.40
14771;DHT22;7477;45.222;5.688;2023-02-27T20:00:26;5.20;90.40
14771;DHT22;7477;45.222;5.688;2023-02-27T20:03:45;5.20;90.70
14771;DHT22;7477;45.222;5.688;2023-02-27T20:07:04;5.20;90.20
14771;DHT22;7477;45.222;5.688;2023-02-27T20:10:23;5.20;90.10
14771;DHT22;7477;45.222;5.688;2023-02-27T20:13:43;5.20;90.20
14771;DHT22;7477;45.222;5.688;2023-02-27T20:17:02;5.10;90.20
14771;DHT22;7477;45.222;5.688;2023-02-27T20:20:22;5.10;90.30
14771;DHT22;7477;45.222;5.688;2023-02-27T20:23:42;5.00;90.30
14771;DHT22;7477;45.222;5.688;2023-02-27T20:27:02;5.00;90.20
14771;DHT22;7477;45.222;5.688;2023-02-27T20:30:21;5.00;90.40
14771;DHT22;7477;45.222;5.688;2023-02-27T20:33:41;5.00;90.30
14771;DHT22;7477;45.222;5.688;2023-02-27T20:37:01;4.90;90.40
14771;DHT22;7477;45.222;5.688;2023-02-27T20:40:21;4.90;90.30
14771;DHT22;7477;45.222;5.688;2023-02-27T20:43:41;4.90;90.40
14771;DHT22;7477;45.222;5.688;2023-02-27T20:47:01;4.80;90.50
14771;DHT22;7477;45.222;5.688;2023-02-27T20:50:20;4.80;90.70
14771;DHT22;7477;45.222;5.688;2023-02-27T20:53:44;4.80;90.70
14771;DHT22;7477;45.222;5.688;2023-02-27T20:57:05;4.70;90.70
14771;DHT22;7477;45.222;5.688;2023-02-27T21:00:24;4.70;90.70
14771;DHT22;7477;45.222;5.688;2023-02-27T21:03:46;4.70;90.90
14771;DHT22;7477;45.222;5.688;2023-02-27T21:07:05;4.60;90.90
14771;DHT22;7477;45.222;5.688;2023-02-27T21:10:24;4.60;90.90
14771;DHT22;7477;45.222;5.688;2023-02-27T21:13:44;4.50;91.10
14771;DHT22;7477;45.222;5.688;2023-02-27T21:17:08;4.50;91.10
14771;DHT22;7477;45.222;5.688;2023-02-27T21:20:27;4.60;91.90
14771;DHT22;7477;45.222;5.688;2023-02-27T21:23:47;4.50;91.20
14771;DHT22;7477;45.222;5.688;2023-02-27T21:27:06;4.60;91.40
14771;DHT22;7477;45.222;5.688;2023-02-27T21:30:27;4.50;91.20
14771;DHT22;7477;45.222;5.688;2023-02-27T21:33:47;4.50;91.10
14771;DHT22;7477;45.222;5.688;2023-02-27T21:37:06;4.50;91.30
14771;DHT22;7477;45.222;5.688;2023-02-27T21:40:27;4.40;91.60
14771;DHT22;7477;45.222;5.688;2023-02-27T21:43:46;4.30;92.00
14771;DHT22;7477;45.222;5.688;2023-02-27T21:47:06;4.20;92.30
14771;DHT22;7477;45.222;5.688;2023-02-27T21:50:27;4.20;92.50
14771;DHT22;7477;45.222;5.688;2023-02-27T21:53:47;4.10;92.70
14771;DHT22;7477;45.222;5.688;2023-02-27T21:57:07;4.00;92.80
14771;DHT22;7477;45.222;5.688;2023-02-27T22:00:28;4.00;92.90
14771;DHT22;7477;45.222;5.688;2023-02-27T22:03:51;4.00;93.10
14771;DHT22;7477;45.222;5.688;2023-02-27T22:07:10;3.90;93.40
14771;DHT22;7477;45.222;5.688;2023-02-27T22:10:30;3.70;93.60
14771;DHT22;7477;45.222;5.688;2023-02-27T22:13:50;3.70;93.80
14771;DHT22;7477;45.222;5.688;2023-02-27T22:17:09;3.60;93.90
14771;DHT22;7477;45.222;5.688;2023-02-27T22:20:28;3.60;93.90
14771;DHT22;7477;45.222;5.688;2023-02-27T22:23:48;3.60;94.10
14771;DHT22;7477;45.222;5.688;2023-02-27T22:27:08;3.50;94.50
14771;DHT22;7477;45.222;5.688;2023-02-27T22:30:27;3.60;94.60
14771;DHT22;7477;45.222;5.688;2023-02-27T22:33:49;3.60;94.50
14771;DHT22;7477;45.222;5.688;2023-02-27T22:37:09;3.80;94.50
14771;DHT22;7477;45.222;5.688;2023-02-27T22:40:28;3.80;94.60
14771;DHT22;7477;45.222;5.688;2023-02-27T22:43:50;3.70;94.80
14771;DHT22;7477;45.222;5.688;2023-02-27T22:47:10;3.70;94.90
14771;DHT22;7477;45.222;5.688;2023-02-27T22:50:29;3.50;95.00
14771;DHT22;7477;45.222;5.688;2023-02-27T22:53:48;3.50;94.90
14771;DHT22;7477;45.222;5.688;2023-02-27T22:57:08;3.50;95.10
14771;DHT22;7477;45.222;5.688;2023-02-27T23:00:27;3.30;95.30
14771;DHT22;7477;45.222;5.688;2023-02-27T23:03:49;3.20;95.50
14771;DHT22;7477;45.222;5.688;2023-02-27T23:07:08;3.30;95.70
14771;DHT22;7477;45.222;5.688;2023-02-27T23:10:28;3.40;96.00
14771;DHT22;7477;45.222;5.688;2023-02-27T23:13:47;3.30;96.00
14771;DHT22;7477;45.222;5.688;2023-02-27T23:17:06;3.40;95.90
14771;DHT22;7477;45.222;5.688;2023-02-27T23:20:25;3.40;96.00
14771;DHT22;7477;45.222;5.688;2023-02-27T23:23:44;3.40;96.00
14771;DHT22;7477;45.222;5.688;2023-02-27T23:27:05;3.40;95.90
14771;DHT22;7477;45.222;5.688;2023-02-27T23:30:29;3.40;96.10
14771;DHT22;7477;45.222;5.688;2023-02-27T23:33:49;3.40;96.20
14771;DHT22;7477;45.222;5.688;2023-02-27T23:37:08;3.50;96.40
14771;DHT22;7477;45.222;5.688;2023-02-27T23:40:28;3.50;96.50
14771;DHT22;7477;45.222;5.688;2023-02-27T23:43:51;3.40;96.30
14771;DHT22;7477;45.222;5.688;2023-02-27T23:47:10;3.50;96.30
14771;DHT22;7477;45.222;5.688;2023-02-27T23:50:49;3.50;96.50
14771;DHT22;7477;45.222;5.688;2023-02-27T23:54:08;3.50;96.70
14771;DHT22;7477;45.222;5.688;2023-02-27T23:57:29;3.60;96.80
